sensor_id;sensor_type;location;lat;lon;timestamp;pressure;altitude;pressure_sealevel;temperature;humidity
26657;BME280;14279;50.010;8.260;2024-02-26T00:02:41;98580.66;;;8.32;61.88
26657;BME280;14279;50.010;8.260;2024-02-26T00:05:45;98576.53;;;8.42;62.58
26657;BME280;14279;50.010;8.260;2024-02-26T00:08:42;98573.94;;;8.42;62.11
26657;BME280;14279;50.010;8.260;2024-02-26T00:12:11;98548.31;;;8.38;62.23
26657;BME280;14279;50.010;8.260;2024-02-26T00:15:30;98563.69;;;8.41;61.84
26657;BME280;14279;50.010;8.260;2024-02-26T00:19:05;98560.50;;;8.63;61.25
26657;BME280;14279;50.010;8.260;2024-02-26T00:22:14;98570.34;;;8.71;61.41
26657;BME280;14279;50.010;8.260;2024-02-26T00:25:07;98574.00;;;8.68;61.53
26657;BME280;14279;50.010;8.260;2024-02-26T00:27:53;98571.50;;;8.54;61.94
26657;BME280;14279;50.010;8.260;2024-02-26T00:30:45;98571.72;;;8.77;61.75
26657;BME280;14279;50.010;8.260;2024-02-26T00:33:40;98566.75;;;8.74;61.38
26657;BME280;14279;50.010;8.260;2024-02-26T00:36:54;98567.88;;;8.69;61.52
26657;BME280;14279;50.010;8.260;2024-02-26T00:39:50;98564.66;;;8.79;61.19
26657;BME280;14279;50.010;8.260;2024-02-26T00:42:51;98564.03;;;8.75;61.56
26657;BME280;14279;50.010;8.260;2024-02-26T00:45:43;98558.31;;;8.83;61.16
26657;BME280;14279;50.010;8.260;2024-02-26T00:49:05;98559.03;;;8.85;61.24
26657;BME280;14279;50.010;8.260;2024-02-26T00:51:45;98549.06;;;8.79;60.98
26657;BME280;14279;50.010;8.260;2024-02-26T00:58:11;98582.72;;;8.80;61.01
26657;BME280;14279;50.010;8.260;2024-02-26T01:00:36;98581.19;;;8.91;60.87
26657;BME280;14279;50.010;8.260;2024-02-26T01:03:01;98583.44;;;8.82;60.75
26657;BME280;14279;50.010;8.260;2024-02-26T01:05:27;98575.75;;;8.81;60.96
26657;BME280;14279;50.010;8.260;2024-02-26T01:07:52;98569.00;;;8.78;61.14
26657;BME280;14279;50.010;8.260;2024-02-26T01:10:18;98585.31;;;8.80;60.99
26657;BME280;14279;50.010;8.260;2024-02-26T01:12:43;98581.06;;;8.79;60.99
26657;BME280;14279;50.010;8.260;2024-02-26T01:15:08;98575.66;;;8.69;61.08
26657;BME280;14279;50.010;8.260;2024-02-26T01:17:35;98577.41;;;8.56;61.20
26657;BME280;14279;50.010;8.260;2024-02-26T01:20:00;98565.88;;;8.60;61.37
26657;BME280;14279;50.010;8.260;2024-02-26T01:22:25;98563.75;;;8.39;62.06
26657;BME280;14279;50.010;8.260;2024-02-26T01:24:51;98552.25;;;8.31;62.14
26657;BME280;14279;50.010;8.260;2024-02-26T01:27:16;98574.19;;;8.52;62.12
26657;BME280;14279;50.010;8.260;2024-02-26T01:29:42;98577.31;;;8.57;61.93
26657;BME280;14279;50.010;8.260;2024-02-26T01:32:07;98579.78;;;8.59;61.68
26657;BME280;14279;50.010;8.260;2024-02-26T01:34:32;98584.84;;;8.48;62.04
26657;BME280;14279;50.010;8.260;2024-02-26T01:36:58;98579.38;;;8.52;62.19
26657;BME280;14279;50.010;8.260;2024-02-26T01:39:23;98586.56;;;8.62;62.41
26657;BME280;14279;50.010;8.260;2024-02-26T01:41:49;98582.91;;;8.64;61.93
26657;BME280;14279;50.010;8.260;2024-02-26T01:44:14;98587.56;;;8.59;62.29
26657;BME280;14279;50.010;8.260;2024-02-26T01:46:41;98594.53;;;8.71;62.41
26657;BME280;14279;50.010;8.260;2024-02-26T01:49:08;98590.19;;;8.72;62.16
26657;BME280;14279;50.010;8.260;2024-02-26T01:51:39;98589.22;;;8.60;62.45
26657;BME280;14279;50.010;8.260;2024-02-26T01:54:05;98591.41;;;8.53;62.78
26657;BME280;14279;50.010;8.260;2024-02-26T01:56:33;98578.56;;;8.65;62.56
26657;BME280;14279;50.010;8.260;2024-02-26T01:59:01;98578.25;;;8.56;62.61
26657;BME280;14279;50.010;8.260;2024-02-26T02:01:27;98581.66;;;8.57;62.66
26657;BME280;14279;50.010;8.260;2024-02-26T02:04:01;98588.41;;;8.60;62.83
26657;BME280;14279;50.010;8.260;2024-02-26T02:06:27;98593.69;;;8.71;62.07
26657;BME280;14279;50.010;8.260;2024-02-26T02:08:54;98591.75;;;8.75;62.62
26657;BME280;14279;50.010;8.260;2024-02-26T02:11:20;98593.41;;;8.76;62.55
26657;BME280;14279;50.010;8.260;2024-02-26T02:13:47;98595.28;;;8.74;62.79
26657;BME280;14279;50.010;8.260;2024-02-26T02:16:13;98603.66;;;8.64;62.93
26657;BME280;14279;50.010;8.260;2024-02-26T02:18:42;98606.06;;;8.67;62.70
26657;BME280;14279;50.010;8.260;2024-02-26T02:21:07;98607.91;;;8.65;62.98
26657;BME280;14279;50.010;8.260;2024-02-26T02:23:32;98609.25;;;8.71;62.93
26657;BME280;14279;50.010;8.260;2024-02-26T02:25:58;98606.25;;;8.64;62.99
26657;BME280;14279;50.010;8.260;2024-02-26T02:28:25;98618.91;;;8.69;62.79
26657;BME280;14279;50.010;8.260;2024-02-26T02:30:52;98620.88;;;8.65;62.74
26657;BME280;14279;50.010;8.260;2024-02-26T02:33:18;98622.03;;;8.61;62.78
26657;BME280;14279;50.010;8.260;2024-02-26T02:35:43;98632.75;;;8.42;63.70
26657;BME280;14279;50.010;8.260;2024-02-26T02:38:08;98631.78;;;8.57;63.40
26657;BME280;14279;50.010;8.260;2024-02-26T02:40:34;98639.44;;;8.59;63.52
26657;BME280;14279;50.010;8.260;2024-02-26T02:43:00;98645.56;;;8.58;63.51
26657;BME280;14279;50.010;8.260;2024-02-26T02:45:27;98640.19;;;8.61;62.98
26657;BME280;14279;50.010;8.260;2024-02-26T02:47:53;98636.84;;;8.59;63.65
26657;BME280;14279;50.010;8.260;2024-02-26T02:50:18;98641.09;;;8.60;63.79
26657;BME280;14279;50.010;8.260;2024-02-26T02:52:43;98642.03;;;8.59;63.93
26657;BME280;14279;50.010;8.260;2024-02-26T02:55:08;98640.09;;;8.63;63.63
26657;BME280;14279;50.010;8.260;2024-02-26T02:57:34;98630.13;;;8.69;63.80
26657;BME280;14279;50.010;8.260;2024-02-26T02:59:59;98635.00;;;8.61;63.89
26657;BME280;14279;50.010;8.260;2024-02-26T03:02:24;98635.91;;;8.60;64.13
26657;BME280;14279;50.010;8.260;2024-02-26T03:04:50;98633.84;;;8.52;64.29
26657;BME280;14279;50.010;8.260;2024-02-26T03:07:15;98637.16;;;8.54;64.39
26657;BME280;14279;50.010;8.260;2024-02-26T03:09:40;98630.09;;;8.56;64.99
26657;BME280;14279;50.010;8.260;2024-02-26T03:12:06;98634.38;;;8.57;66.12
26657;BME280;14279;50.010;8.260;2024-02-26T03:14:31;98633.53;;;8.57;65.74
26657;BME280;14279;50.010;8.260;2024-02-26T03:16:57;98637.56;;;8.48;67.00
26657;BME280;14279;50.010;8.260;2024-02-26T03:19:22;98640.72;;;8.39;68.43
26657;BME280;14279;50.010;8.260;2024-02-26T03:21:47;98632.72;;;8.29;69.30
26657;BME280;14279;50.010;8.260;2024-02-26T03:24:13;98641.06;;;8.20;71.05
26657;BME280;14279;50.010;8.260;2024-02-26T03:26:38;98643.63;;;8.07;71.55
26657;BME280;14279;50.010;8.260;2024-02-26T03:29:04;98637.31;;;8.11;71.73
26657;BME280;14279;50.010;8.260;2024-02-26T03:31:29;98641.84;;;8.07;73.30
26657;BME280;14279;50.010;8.260;2024-02-26T03:33:54;98648.53;;;7.97;74.39
26657;BME280;14279;50.010;8.260;2024-02-26T03:36:20;98650.03;;;7.87;76.82
26657;BME280;14279;50.010;8.260;2024-02-26T03:38:46;98646.94;;;7.81;75.86
26657;BME280;14279;50.010;8.260;2024-02-26T03:41:12;98647.84;;;7.80;76.72
26657;BME280;14279;50.010;8.260;2024-02-26T03:43:37;98648.31;;;7.73;78.64
26657;BME280;14279;50.010;8.260;2024-02-26T03:46:02;98648.22;;;7.60;79.45
26657;BME280;14279;50.010;8.260;2024-02-26T03:48:28;98644.94;;;7.58;79.85
26657;BME280;14279;50.010;8.260;2024-02-26T03:50:53;98645.47;;;7.48;81.04
26657;BME280;14279;50.010;8.260;2024-02-26T03:53:18;98643.06;;;7.45;82.12
26657;BME280;14279;50.010;8.260;2024-02-26T03:55:44;98637.91;;;7.45;82.93
26657;BME280;14279;50.010;8.260;2024-02-26T03:58:09;98634.75;;;7.40;83.75
26657;BME280;14279;50.010;8.260;2024-02-26T04:00:34;98637.44;;;7.39;84.48
26657;BME280;14279;50.010;8.260;2024-02-26T04:02:59;98643.28;;;7.28;83.87
26657;BME280;14279;50.010;8.260;2024-02-26T04:05:25;98645.00;;;7.27;86.06
26657;BME280;14279;50.010;8.260;2024-02-26T04:07:50;98640.41;;;7.18;86.96
26657;BME280;14279;50.010;8.260;2024-02-26T04:10:15;98640.59;;;7.15;88.32
26657;BME280;14279;50.010;8.260;2024-02-26T04:12:42;98633.63;;;7.01;87.55
26657;BME280;14279;50.010;8.260;2024-02-26T04:15:10;98625.03;;;7.00;88.34
26657;BME280;14279;50.010;8.260;2024-02-26T04:17:36;98626.78;;;7.00;89.92
26657;BME280;14279;50.010;8.260;2024-02-26T04:20:12;98627.72;;;6.99;90.15
26657;BME280;14279;50.010;8.260;2024-02-26T04:22:38;98628.34;;;6.88;91.21
26657;BME280;14279;50.010;8.260;2024-02-26T04:25:03;98631.59;;;6.91;92.37
26657;BME280;14279;50.010;8.260;2024-02-26T04:27:29;98624.00;;;6.88;91.96
26657;BME280;14279;50.010;8.260;2024-02-26T04:29:54;98630.09;;;6.87;92.77
26657;BME280;14279;50.010;8.260;2024-02-26T04:32:20;98626.41;;;6.91;92.64
26657;BME280;14279;50.010;8.260;2024-02-26T04:34:46;98632.16;;;6.97;93.81
26657;BME280;14279;50.010;8.260;2024-02-26T04:37:11;98638.81;;;7.01;93.46
26657;BME280;14279;50.010;8.260;2024-02-26T04:39:40;98630.66;;;6.92;94.12
26657;BME280;14279;50.010;8.260;2024-02-26T04:42:06;98636.41;;;6.98;93.59
26657;BME280;14279;50.010;8.260;2024-02-26T04:44:31;98637.44;;;6.95;93.79
26657;BME280;14279;50.010;8.260;2024-02-26T04:46:56;98630.66;;;6.92;94.27
26657;BME280;14279;50.010;8.260;2024-02-26T04:49:22;98638.59;;;6.89;94.57
26657;BME280;14279;50.010;8.260;2024-02-26T04:51:47;98639.50;;;6.88;94.23
26657;BME280;14279;50.010;8.260;2024-02-26T04:54:13;98644.22;;;6.82;94.62
26657;BME280;14279;50.010;8.260;2024-02-26T04:56:38;98645.25;;;6.79;94.49
26657;BME280;14279;50.010;8.260;2024-02-26T04:59:04;98645.06;;;6.82;94.61
26657;BME280;14279;50.010;8.260;2024-02-26T05:01:29;98644.78;;;6.87;95.37
26657;BME280;14279;50.010;8.260;2024-02-26T05:03:54;98644.78;;;6.87;94.74
26657;BME280;14279;50.010;8.260;2024-02-26T05:06:20;98646.25;;;6.76;94.57
26657;BME280;14279;50.010;8.260;2024-02-26T05:08:45;98645.06;;;6.82;95.00
26657;BME280;14279;50.010;8.260;2024-02-26T05:11:11;98646.91;;;6.80;95.50
26657;BME280;14279;50.010;8.260;2024-02-26T05:13:36;98644.22;;;6.82;95.17
26657;BME280;14279;50.010;8.260;2024-02-26T05:16:02;98645.59;;;6.73;93.92
26657;BME280;14279;50.010;8.260;2024-02-26T05:18:28;98643.19;;;6.70;94.94
26657;BME280;14279;50.010;8.260;2024-02-26T05:20:57;98644.44;;;6.62;95.06
26657;BME280;14279;50.010;8.260;2024-02-26T05:23:27;98644.03;;;6.70;94.87
26657;BME280;14279;50.010;8.260;2024-02-26T05:25:55;98649.63;;;6.62;95.55
26657;BME280;14279;50.010;8.260;2024-02-26T05:29:49;98648.78;;;6.62;95.79
26657;BME280;14279;50.010;8.260;2024-02-26T05:33:10;98639.53;;;6.58;96.77
26657;BME280;14279;50.010;8.260;2024-02-26T05:35:39;98642.22;;;6.56;96.42
26657;BME280;14279;50.010;8.260;2024-02-26T05:38:08;98643.47;;;6.65;96.70
26657;BME280;14279;50.010;8.260;2024-02-26T05:40:34;98643.47;;;6.65;97.29
26657;BME280;14279;50.010;8.260;2024-02-26T05:43:11;98640.59;;;6.70;96.91
26657;BME280;14279;50.010;8.260;2024-02-26T05:46:12;98636.50;;;6.66;99.00
26657;BME280;14279;50.010;8.260;2024-02-26T05:52:25;98648.94;;;6.75;98.98
26657;BME280;14279;50.010;8.260;2024-02-26T05:56:14;98649.66;;;6.77;99.15
26657;BME280;14279;50.010;8.260;2024-02-26T06:00:12;98656.28;;;6.67;98.75
26657;BME280;14279;50.010;8.260;2024-02-26T06:03:07;98659.59;;;6.54;98.52
26657;BME280;14279;50.010;8.260;2024-02-26T06:06:17;98659.75;;;6.51;99.63
26657;BME280;14279;50.010;8.260;2024-02-26T06:09:17;98672.53;;;6.38;98.95
26657;BME280;14279;50.010;8.260;2024-02-26T06:11:44;98677.28;;;6.30;98.66
26657;BME280;14279;50.010;8.260;2024-02-26T06:14:09;98672.66;;;6.21;98.61
26657;BME280;14279;50.010;8.260;2024-02-26T06:16:36;98679.97;;;6.28;99.18
26657;BME280;14279;50.010;8.260;2024-02-26T06:19:05;98688.13;;;6.37;100.00
26657;BME280;14279;50.010;8.260;2024-02-26T06:21:38;98698.13;;;6.43;99.12
26657;BME280;14279;50.010;8.260;2024-02-26T06:24:23;98691.28;;;6.42;99.65
26657;BME280;14279;50.010;8.260;2024-02-26T06:26:48;98694.63;;;6.44;99.93
26657;BME280;14279;50.010;8.260;2024-02-26T06:29:14;98702.31;;;6.45;100.00
26657;BME280;14279;50.010;8.260;2024-02-26T06:31:57;98710.38;;;6.55;100.00
26657;BME280;14279;50.010;8.260;2024-02-26T06:34:26;98702.69;;;6.54;100.00
26657;BME280;14279;50.010;8.260;2024-02-26T06:37:11;98701.53;;;6.59;100.00
26657;BME280;14279;50.010;8.260;2024-02-26T06:39:38;98715.72;;;6.52;100.00
26657;BME280;14279;50.010;8.260;2024-02-26T06:42:13;98712.22;;;6.53;100.00
26657;BME280;14279;50.010;8.260;2024-02-26T06:44:39;98711.47;;;6.51;100.00
26657;BME280;14279;50.010;8.260;2024-02-26T06:47:11;98724.88;;;6.58;100.00
26657;BME280;14279;50.010;8.260;2024-02-26T06:49:38;98715.72;;;6.52;100.00
26657;BME280;14279;50.010;8.260;2024-02-26T06:52:03;98722.22;;;6.43;99.64
26657;BME280;14279;50.010;8.260;2024-02-26T06:54:30;98719.47;;;6.46;100.00
26657;BME280;14279;50.010;8.260;2024-02-26T06:56:56;98732.16;;;6.35;99.99
26657;BME280;14279;50.010;8.260;2024-02-26T06:59:22;98733.75;;;6.38;100.00
26657;BME280;14279;50.010;8.260;2024-02-26T07:01:48;98743.56;;;6.47;100.00
26657;BME280;14279;50.010;8.260;2024-02-26T07:04:14;98743.06;;;6.56;100.00
26657;BME280;14279;50.010;8.260;2024-02-26T07:06:51;98751.31;;;6.47;100.00
26657;BME280;14279;50.010;8.260;2024-02-26T07:09:18;98753.31;;;6.42;100.00
26657;BME280;14279;50.010;8.260;2024-02-26T07:11:46;98753.31;;;6.42;100.00
26657;BME280;14279;50.010;8.260;2024-02-26T07:14:12;98766.16;;;6.43;100.00
26657;BME280;14279;50.010;8.260;2024-02-26T07:16:38;98769.66;;;6.58;100.00
26657;BME280;14279;50.010;8.260;2024-02-26T07:19:04;98762.31;;;6.67;100.00
26657;BME280;14279;50.010;8.260;2024-02-26T07:21:30;98769.41;;;6.63;99.93
26657;BME280;14279;50.010;8.260;2024-02-26T07:23:55;98774.00;;;6.58;100.00
26657;BME280;14279;50.010;8.260;2024-02-26T07:26:38;98774.50;;;6.49;100.00
26657;BME280;14279;50.010;8.260;2024-02-26T07:29:09;98774.00;;;6.42;100.00
26657;BME280;14279;50.010;8.260;2024-02-26T07:31:35;98773.06;;;6.27;99.98
26657;BME280;14279;50.010;8.260;2024-02-26T07:34:04;98762.81;;;6.25;100.00
26657;BME280;14279;50.010;8.260;2024-02-26T07:36:30;98768.91;;;6.24;100.00
26657;BME280;14279;50.010;8.260;2024-02-26T07:38:55;98771.81;;;6.18;100.00
26657;BME280;14279;50.010;8.260;2024-02-26T07:41:24;98774.50;;;6.32;100.00
26657;BME280;14279;50.010;8.260;2024-02-26T07:43:50;98775.44;;;6.31;100.00
26657;BME280;14279;50.010;8.260;2024-02-26T07:46:15;98776.03;;;6.37;100.00
26657;BME280;14279;50.010;8.260;2024-02-26T07:51:54;98786.09;;;6.41;100.00
26657;BME280;14279;50.010;8.260;2024-02-26T07:54:44;98786.91;;;6.42;100.00
26657;BME280;14279;50.010;8.260;2024-02-26T07:57:18;98786.44;;;6.51;100.00
26657;BME280;14279;50.010;8.260;2024-02-26T07:59:53;98787.94;;;6.55;100.00
26657;BME280;14279;50.010;8.260;2024-02-26T08:02:20;98790.75;;;6.67;100.00
26657;BME280;14279;50.010;8.260;2024-02-26T08:05:03;98798.75;;;6.62;100.00
26657;BME280;14279;50.010;8.260;2024-02-26T08:07:53;98806.25;;;6.51;99.63
26657;BME280;14279;50.010;8.260;2024-02-26T08:14:00;98811.44;;;6.67;100.00
26657;BME280;14279;50.010;8.260;2024-02-26T08:17:03;98810.28;;;6.56;100.00
26657;BME280;14279;50.010;8.260;2024-02-26T08:19:29;98808.44;;;6.42;99.72
26657;BME280;14279;50.010;8.260;2024-02-26T08:22:21;98809.94;;;6.46;100.00
26657;BME280;14279;50.010;8.260;2024-02-26T08:24:57;98811.44;;;6.51;100.00
26657;BME280;14279;50.010;8.260;2024-02-26T08:27:23;98812.38;;;6.50;100.00
26657;BME280;14279;50.010;8.260;2024-02-26T08:29:55;98811.25;;;6.54;99.53
26657;BME280;14279;50.010;8.260;2024-02-26T08:33:08;98808.63;;;6.71;100.00
26657;BME280;14279;50.010;8.260;2024-02-26T08:38:27;98814.28;;;6.78;99.51
26657;BME280;14279;50.010;8.260;2024-02-26T08:41:04;98823.38;;;6.85;99.76
26657;BME280;14279;50.010;8.260;2024-02-26T08:43:49;98820.25;;;6.95;99.28
26657;BME280;14279;50.010;8.260;2024-02-26T08:46:15;98826.94;;;6.99;99.86
26657;BME280;14279;50.010;8.260;2024-02-26T08:48:40;98820.91;;;6.98;98.90
26657;BME280;14279;50.010;8.260;2024-02-26T08:51:10;98816.91;;;7.09;100.00
26657;BME280;14279;50.010;8.260;2024-02-26T08:53:36;98829.09;;;7.06;99.15
26657;BME280;14279;50.010;8.260;2024-02-26T08:56:25;98831.59;;;7.08;99.90
26657;BME280;14279;50.010;8.260;2024-02-26T08:59:32;98831.81;;;7.19;100.00
26657;BME280;14279;50.010;8.260;2024-02-26T09:01:59;98825.38;;;7.27;100.00
26657;BME280;14279;50.010;8.260;2024-02-26T09:04:25;98831.19;;;7.30;100.00
26657;BME280;14279;50.010;8.260;2024-02-26T09:06:52;98842.41;;;7.31;100.00
26657;BME280;14279;50.010;8.260;2024-02-26T09:09:43;98824.69;;;7.23;100.00
26657;BME280;14279;50.010;8.260;2024-02-26T09:12:08;98830.44;;;6.98;99.88
26657;BME280;14279;50.010;8.260;2024-02-26T09:14:33;98834.78;;;6.97;100.00
26657;BME280;14279;50.010;8.260;2024-02-26T09:16:59;98825.69;;;7.06;100.00
26657;BME280;14279;50.010;8.260;2024-02-26T09:19:25;98826.06;;;7.14;100.00
26657;BME280;14279;50.010;8.260;2024-02-26T09:21:52;98822.06;;;7.09;100.00
26657;BME280;14279;50.010;8.260;2024-02-26T09:24:19;98821.94;;;6.64;99.65
26657;BME280;14279;50.010;8.260;2024-02-26T09:26:45;98827.78;;;6.67;99.24
26657;BME280;14279;50.010;8.260;2024-02-26T09:29:10;98825.44;;;6.79;99.66
26657;BME280;14279;50.010;8.260;2024-02-26T09:31:38;98841.47;;;6.85;99.43
26657;BME280;14279;50.010;8.260;2024-02-26T09:34:06;98844.97;;;6.84;99.83
26657;BME280;14279;50.010;8.260;2024-02-26T09:36:35;98844.06;;;6.69;99.71
26657;BME280;14279;50.010;8.260;2024-02-26T09:39:10;98850.47;;;6.94;100.00
26657;BME280;14279;50.010;8.260;2024-02-26T09:41:38;98845.78;;;7.01;98.85
26657;BME280;14279;50.010;8.260;2024-02-26T09:44:28;98846.53;;;7.03;98.02
26657;BME280;14279;50.010;8.260;2024-02-26T09:47:05;98840.81;;;7.28;98.32
26657;BME280;14279;50.010;8.260;2024-02-26T09:49:34;98850.94;;;7.17;96.64
26657;BME280;14279;50.010;8.260;2024-02-26T09:52:01;98846.41;;;7.20;96.13
26657;BME280;14279;50.010;8.260;2024-02-26T09:54:28;98854.56;;;7.45;96.04
26657;BME280;14279;50.010;8.260;2024-02-26T09:56:59;98866.63;;;7.60;95.71
26657;BME280;14279;50.010;8.260;2024-02-26T09:59:25;98869.81;;;7.49;94.89
26657;BME280;14279;50.010;8.260;2024-02-26T10:01:51;98866.81;;;7.41;94.87
26657;BME280;14279;50.010;8.260;2024-02-26T10:04:18;98876.09;;;7.45;95.88
26657;BME280;14279;50.010;8.260;2024-02-26T10:06:44;98865.59;;;7.32;94.59
26657;BME280;14279;50.010;8.260;2024-02-26T10:09:10;98872.47;;;7.17;95.18
26657;BME280;14279;50.010;8.260;2024-02-26T10:11:36;98879.13;;;7.37;95.54
26657;BME280;14279;50.010;8.260;2024-02-26T10:14:02;98887.31;;;7.60;93.95
26657;BME280;14279;50.010;8.260;2024-02-26T10:16:36;98884.16;;;7.55;93.24
26657;BME280;14279;50.010;8.260;2024-02-26T10:19:27;98886.75;;;7.55;93.29
26657;BME280;14279;50.010;8.260;2024-02-26T10:22:00;98882.00;;;7.78;93.21
26657;BME280;14279;50.010;8.260;2024-02-26T10:24:31;98889.50;;;7.82;92.73
26657;BME280;14279;50.010;8.260;2024-02-26T10:26:57;98889.47;;;7.68;92.65
26657;BME280;14279;50.010;8.260;2024-02-26T10:29:24;98888.94;;;7.77;93.04
26657;BME280;14279;50.010;8.260;2024-02-26T10:31:51;98894.72;;;7.97;92.26
26657;BME280;14279;50.010;8.260;2024-02-26T10:38:14;98905.19;;;8.10;91.03
26657;BME280;14279;50.010;8.260;2024-02-26T10:41:10;98904.69;;;7.89;91.38
26657;BME280;14279;50.010;8.260;2024-02-26T10:43:56;98907.84;;;7.79;92.65
26657;BME280;14279;50.010;8.260;2024-02-26T10:46:28;98907.84;;;7.94;91.50
26657;BME280;14279;50.010;8.260;2024-02-26T10:49:20;98913.78;;;7.96;91.90
26657;BME280;14279;50.010;8.260;2024-02-26T10:51:59;98910.31;;;8.26;91.36
26657;BME280;14279;50.010;8.260;2024-02-26T10:54:38;98918.31;;;8.07;91.87
26657;BME280;14279;50.010;8.260;2024-02-26T10:57:59;98907.56;;;7.98;90.93
26657;BME280;14279;50.010;8.260;2024-02-26T11:00:56;98906.16;;;7.78;92.50
26657;BME280;14279;50.010;8.260;2024-02-26T11:03:22;98909.91;;;8.03;92.26
26657;BME280;14279;50.010;8.260;2024-02-26T11:05:48;98914.00;;;8.22;91.94
26657;BME280;14279;50.010;8.260;2024-02-26T11:08:15;98926.16;;;8.50;91.85
26657;BME280;14279;50.010;8.260;2024-02-26T11:10:41;98912.44;;;8.48;91.06
26657;BME280;14279;50.010;8.260;2024-02-26T11:13:09;98926.50;;;8.44;90.00
26657;BME280;14279;50.010;8.260;2024-02-26T11:15:40;98921.50;;;8.12;89.59
26657;BME280;14279;50.010;8.260;2024-02-26T11:18:07;98924.81;;;8.14;89.82
26657;BME280;14279;50.010;8.260;2024-02-26T11:20:33;98927.81;;;8.51;89.81
26657;BME280;14279;50.010;8.260;2024-02-26T11:22:59;98926.13;;;8.79;88.54
26657;BME280;14279;50.010;8.260;2024-02-26T11:25:24;98933.00;;;8.80;87.22
26657;BME280;14279;50.010;8.260;2024-02-26T11:27:56;98928.75;;;8.50;86.36
26657;BME280;14279;50.010;8.260;2024-02-26T11:30:25;98929.19;;;8.57;86.68
26657;BME280;14279;50.010;8.260;2024-02-26T11:32:52;98928.19;;;8.60;86.39
26657;BME280;14279;50.010;8.260;2024-02-26T11:35:18;98933.28;;;8.61;87.28
26657;BME280;14279;50.010;8.260;2024-02-26T11:37:54;98938.94;;;8.82;86.97
26657;BME280;14279;50.010;8.260;2024-02-26T11:40:19;98944.00;;;8.98;86.09
26657;BME280;14279;50.010;8.260;2024-02-26T11:42:45;98943.22;;;9.11;86.23
26657;BME280;14279;50.010;8.260;2024-02-26T11:45:47;98927.50;;;8.99;85.90
26657;BME280;14279;50.010;8.260;2024-02-26T11:48:24;98929.22;;;9.13;86.28
26657;BME280;14279;50.010;8.260;2024-02-26T11:51:02;98930.97;;;8.85;85.85
26657;BME280;14279;50.010;8.260;2024-02-26T12:05:42;98928.88;;;9.32;83.50
26657;BME280;14279;50.010;8.260;2024-02-26T12:08:47;98934.69;;;9.09;84.98
26657;BME280;14279;50.010;8.260;2024-02-26T12:11:16;98936.16;;;9.40;84.21
26657;BME280;14279;50.010;8.260;2024-02-26T12:14:00;98939.22;;;9.47;83.90
26657;BME280;14279;50.010;8.260;2024-02-26T12:17:04;98945.44;;;9.44;84.43
26657;BME280;14279;50.010;8.260;2024-02-26T12:20:13;98950.41;;;9.62;83.22
26657;BME280;14279;50.010;8.260;2024-02-26T12:26:48;98954.38;;;9.81;82.12
26657;BME280;14279;50.010;8.260;2024-02-26T12:34:33;98951.69;;;9.82;82.13
26657;BME280;14279;50.010;8.260;2024-02-26T12:41:54;98949.16;;;9.68;83.00
26657;BME280;14279;50.010;8.260;2024-02-26T12:45:54;98953.75;;;9.90;81.96
26657;BME280;14279;50.010;8.260;2024-02-26T12:49:14;98951.41;;;9.59;82.44
26657;BME280;14279;50.010;8.260;2024-02-26T12:56:29;98966.13;;;9.46;83.41
26657;BME280;14279;50.010;8.260;2024-02-26T13:07:43;98962.25;;;10.19;81.24
26657;BME280;14279;50.010;8.260;2024-02-26T13:12:03;98970.44;;;10.00;81.95
26657;BME280;14279;50.010;8.260;2024-02-26T13:15:43;98983.16;;;10.31;81.07
26657;BME280;14279;50.010;8.260;2024-02-26T13:20:00;98978.16;;;10.28;79.91
26657;BME280;14279;50.010;8.260;2024-02-26T13:23:18;98977.63;;;10.10;80.65
26657;BME280;14279;50.010;8.260;2024-02-26T13:27:12;98982.56;;;10.40;79.68
26657;BME280;14279;50.010;8.260;2024-02-26T13:30:36;98987.78;;;10.53;78.92
26657;BME280;14279;50.010;8.260;2024-02-26T13:33:12;98992.78;;;10.43;79.62
26657;BME280;14279;50.010;8.260;2024-02-26T13:35:50;98992.78;;;10.56;78.84
26657;BME280;14279;50.010;8.260;2024-02-26T13:42:30;98997.81;;;11.09;76.69
26657;BME280;14279;50.010;8.260;2024-02-26T13:45:42;98997.75;;;10.72;77.60
26657;BME280;14279;50.010;8.260;2024-02-26T13:48:23;99009.78;;;10.21;79.91
26657;BME280;14279;50.010;8.260;2024-02-26T13:51:25;99011.22;;;10.26;80.68
26657;BME280;14279;50.010;8.260;2024-02-26T13:53:56;99014.69;;;10.26;80.60
26657;BME280;14279;50.010;8.260;2024-02-26T14:00:20;99020.19;;;10.21;80.21
26657;BME280;14279;50.010;8.260;2024-02-26T14:03:10;99020.44;;;10.04;81.32
26657;BME280;14279;50.010;8.260;2024-02-26T14:05:36;99012.38;;;10.08;81.51
26657;BME280;14279;50.010;8.260;2024-02-26T14:08:01;99007.19;;;10.21;81.54
26657;BME280;14279;50.010;8.260;2024-02-26T14:10:26;99013.88;;;10.51;80.21
26657;BME280;14279;50.010;8.260;2024-02-26T14:12:52;99006.69;;;10.29;80.90
26657;BME280;14279;50.010;8.260;2024-02-26T14:15:19;99016.63;;;10.10;81.43
26657;BME280;14279;50.010;8.260;2024-02-26T14:17:44;99010.63;;;10.35;80.51
26657;BME280;14279;50.010;8.260;2024-02-26T14:20:12;99015.47;;;10.54;79.64
26657;BME280;14279;50.010;8.260;2024-02-26T14:22:39;99006.88;;;10.26;80.20
26657;BME280;14279;50.010;8.260;2024-02-26T14:25:05;99010.50;;;10.23;80.73
26657;BME280;14279;50.010;8.260;2024-02-26T14:27:30;99008.09;;;10.07;80.90
26657;BME280;14279;50.010;8.260;2024-02-26T14:29:56;99012.53;;;9.92;81.02
26657;BME280;14279;50.010;8.260;2024-02-26T14:32:21;99019.13;;;10.11;80.65
26657;BME280;14279;50.010;8.260;2024-02-26T14:34:47;99021.13;;;10.20;80.55
26657;BME280;14279;50.010;8.260;2024-02-26T14:37:15;99034.19;;;10.06;80.47
26657;BME280;14279;50.010;8.260;2024-02-26T14:40:03;99039.34;;;10.20;80.36
26657;BME280;14279;50.010;8.260;2024-02-26T14:42:40;99051.69;;;10.44;79.28
26657;BME280;14279;50.010;8.260;2024-02-26T14:45:06;99048.53;;;10.39;79.30
26657;BME280;14279;50.010;8.260;2024-02-26T14:47:35;99046.84;;;10.38;79.87
26657;BME280;14279;50.010;8.260;2024-02-26T14:50:05;99039.81;;;10.66;78.60
26657;BME280;14279;50.010;8.260;2024-02-26T14:52:30;99044.59;;;10.46;79.05
26657;BME280;14279;50.010;8.260;2024-02-26T14:54:56;99043.38;;;10.65;78.78
26657;BME280;14279;50.010;8.260;2024-02-26T14:57:23;99046.25;;;10.60;78.51
26657;BME280;14279;50.010;8.260;2024-02-26T14:59:48;99048.16;;;10.58;79.05